Time;durP1;ratioP1;P1;durP2;ratioP2;P2;SDS_P1;SDS_P2;PMS_P1;PMS_P2;Temp;Humidity;BMP_temperature;BMP_pressure;BME280_temperature;BME280_humidity;BME280_pressure;Samples;Min_cycle;Max_cycle;Signal;HPM_P1;HPM_P2
2022/03/24 00:01:21;;;;;;;22.95;15.90;;;;;;;10.76;57.97;101072.41;4884004;29;20032;-91
2022/03/24 00:03:46;;;;;;;23.30;15.45;;;;;;;10.74;57.95;101071.66;4885190;29;20036;-92
2022/03/24 00:06:12;;;;;;;25.58;15.13;;;;;;;10.72;57.77;101066.44;4885064;29;20497;-91
2022/03/24 00:08:38;;;;;;;23.17;15.50;;;;;;;10.68;57.61;101064.09;4884800;29;20516;-91
2022/03/24 00:11:03;;;;;;;22.65;15.40;;;;;;;10.69;57.33;101061.31;4885161;29;20024;-91
2022/03/24 00:13:29;;;;;;;23.70;14.75;;;;;;;10.72;57.18;101063.75;4884597;29;20024;-93
2022/03/24 00:15:54;;;;;;;21.10;14.70;;;;;;;10.69;57.30;101063.97;4883664;29;20095;-91
2022/03/24 00:18:20;;;;;;;21.88;15.38;;;;;;;10.65;56.93;101059.81;4885482;29;20039;-92
2022/03/24 00:20:45;;;;;;;20.80;14.50;;;;;;;10.66;57.26;101063.34;4884529;29;20028;-92
2022/03/24 00:23:10;;;;;;;23.95;14.38;;;;;;;10.64;57.39;101067.94;4885705;29;20048;-92
2022/03/24 00:25:36;;;;;;;20.75;15.07;;;;;;;10.62;57.98;101059.19;4885566;29;20385;-91
2022/03/24 00:28:02;;;;;;;22.77;15.60;;;;;;;10.55;57.94;101052.56;4885062;29;20059;-93
2022/03/24 00:30:28;;;;;;;22.17;15.05;;;;;;;10.64;57.60;101050.09;4883763;29;20024;-93
2022/03/24 00:32:53;;;;;;;22.67;15.57;;;;;;;10.65;57.43;101057.13;4884103;29;20034;-91
2022/03/24 00:35:18;;;;;;;21.90;15.68;;;;;;;10.59;57.31;101051.38;4884918;29;20039;-91
2022/03/24 00:37:44;;;;;;;24.50;15.98;;;;;;;10.54;57.60;101048.19;4884642;29;20139;-91
2022/03/24 00:40:10;;;;;;;24.98;15.93;;;;;;;10.55;57.35;101045.41;4884361;29;20036;-92
2022/03/24 00:42:36;;;;;;;24.42;16.27;;;;;;;10.50;57.38;101044.88;4884630;29;20024;-92
2022/03/24 00:45:06;;;;;;;20.75;15.40;;;;;;;10.48;57.73;101046.81;4883486;29;20107;-92
2022/03/24 00:47:34;;;;;;;25.75;16.27;;;;;;;10.46;58.19;101053.25;4884064;29;20482;-91
2022/03/24 00:49:59;;;;;;;22.47;15.87;;;;;;;10.45;57.88;101047.03;4884509;29;20039;-91
2022/03/24 00:52:25;;;;;;;23.70;16.05;;;;;;;10.40;58.37;101043.81;4884587;29;20268;-92
2022/03/24 00:54:50;;;;;;;23.25;15.98;;;;;;;10.45;57.84;101043.50;4885000;29;20032;-92
2022/03/24 00:57:16;;;;;;;23.80;16.55;;;;;;;10.37;58.00;101041.34;4884576;29;20028;-93
2022/03/24 00:59:42;;;;;;;26.15;16.92;;;;;;;10.30;57.84;101040.94;4884499;29;20060;-92
2022/03/24 01:02:09;;;;;;;22.63;16.23;;;;;;;10.29;58.05;101036.56;4884495;29;20070;-91
2022/03/24 01:04:36;;;;;;;25.23;16.77;;;;;;;10.31;57.68;101042.66;4884745;29;20036;-91
2022/03/24 01:07:03;;;;;;;23.70;16.25;;;;;;;10.28;57.59;101032.19;4884549;29;20036;-91
2022/03/24 01:09:29;;;;;;;23.17;16.40;;;;;;;10.29;57.79;101036.56;4900156;29;20039;-91
2022/03/24 01:11:56;;;;;;;23.48;15.90;;;;;;;10.24;57.81;101030.69;4884587;29;20079;-91
2022/03/24 01:14:22;;;;;;;22.60;15.85;;;;;;;10.23;58.22;101031.66;4884552;29;20494;-91
2022/03/24 01:16:50;;;;;;;20.92;15.73;;;;;;;10.24;58.03;101030.69;4883851;29;20051;-92
2022/03/24 01:19:16;;;;;;;24.60;16.53;;;;;;;10.27;57.60;101038.50;4882783;29;20024;-92
2022/03/24 01:21:42;;;;;;;23.77;16.00;;;;;;;10.26;57.53;101035.91;4883591;29;20020;-91
2022/03/24 01:24:08;;;;;;;24.05;16.10;;;;;;;10.22;57.71;101027.28;4884419;29;20028;-92
2022/03/24 01:26:34;;;;;;;22.40;15.95;;;;;;;10.23;57.44;101028.97;4883434;29;20023;-91
2022/03/24 01:29:00;;;;;;;22.45;15.40;;;;;;;10.21;57.52;101027.38;4884242;29;20500;-91
2022/03/24 01:31:25;;;;;;;22.95;16.02;;;;;;;10.21;57.60;101022.88;4884484;29;20489;-91
2022/03/24 01:33:51;;;;;;;20.95;15.60;;;;;;;10.18;57.98;101024.91;4883690;29;20028;-92
2022/03/24 01:36:18;;;;;;;23.63;15.65;;;;;;;10.19;57.86;101023.94;4883143;29;20082;-91
2022/03/24 01:38:43;;;;;;;23.13;16.05;;;;;;;10.15;57.93;101015.28;4882362;29;20106;-91
2022/03/24 01:41:09;;;;;;;22.15;15.80;;;;;;;10.14;57.88;101015.38;4882066;29;20492;-91
2022/03/24 01:43:35;;;;;;;23.23;16.15;;;;;;;10.08;57.81;101016.69;4884016;29;20092;-91
2022/03/24 01:46:01;;;;;;;21.80;15.48;;;;;;;10.04;58.21;101013.38;4884104;29;20024;-92
2022/03/24 01:48:26;;;;;;;23.27;16.02;;;;;;;10.05;58.18;101017.75;4883920;29;20389;-91
2022/03/24 01:50:52;;;;;;;22.50;15.63;;;;;;;10.03;58.13;101018.81;4882906;29;20038;-91
2022/03/24 01:53:18;;;;;;;23.38;15.98;;;;;;;10.00;58.52;101014.53;4882935;29;20063;-92
2022/03/24 01:55:44;;;;;;;23.40;16.65;;;;;;;10.00;58.49;101014.53;4882276;29;20027;-92
2022/03/24 01:58:11;;;;;;;22.77;16.55;;;;;;;9.96;58.25;101010.38;4883831;29;20024;-91
2022/03/24 02:00:37;;;;;;;24.20;17.00;;;;;;;9.93;58.31;101007.03;4883178;29;20063;-91
2022/03/24 02:03:04;;;;;;;22.35;16.02;;;;;;;9.90;58.41;101009.94;4883888;29;20024;-91
2022/03/24 02:05:34;;;;;;;23.80;16.50;;;;;;;9.89;58.61;101009.06;4883517;29;20046;-92
2022/03/24 02:08:03;;;;;;;23.67;16.20;;;;;;;9.89;58.44;101009.06;4883224;29;20024;-92
2022/03/24 02:10:31;;;;;;;23.60;16.92;;;;;;;9.87;58.85;101005.66;4882316;29;20426;-90
2022/03/24 02:12:57;;;;;;;22.02;16.15;;;;;;;9.86;58.94;101003.94;4882838;29;20024;-91
2022/03/24 02:15:26;;;;;;;25.88;15.70;;;;;;;9.85;58.99;101018.28;4883052;29;20036;-91
2022/03/24 02:17:52;;;;;;;22.98;14.70;;;;;;;9.89;58.88;101013.56;4883423;29;20032;-91
2022/03/24 02:20:21;;;;;;;22.63;15.85;;;;;;;9.88;59.27;101001.16;4883536;29;20576;-91
2022/03/24 02:22:51;;;;;;;25.15;16.42;;;;;;;9.83;58.98;101001.50;4883280;29;20028;-91
2022/03/24 02:25:16;;;;;;;26.25;15.88;;;;;;;9.81;59.49;101007.91;4884739;29;20028;-91
2022/03/24 02:27:47;;;;;;;20.23;15.35;;;;;;;9.80;59.17;101007.06;4883322;29;20024;-91
2022/03/24 02:30:12;;;;;;;23.30;15.02;;;;;;;9.78;58.93;101000.97;4883955;29;20382;-91
2022/03/24 02:32:38;;;;;;;22.98;15.80;;;;;;;9.74;58.95;101002.13;4887403;29;20024;-91
2022/03/24 02:35:04;;;;;;;20.88;16.05;;;;;;;9.76;59.12;101003.75;4887439;29;20111;-93
2022/03/24 02:37:30;;;;;;;23.15;15.85;;;;;;;9.72;59.15;100996.91;4903160;29;20078;-91
2022/03/24 02:39:58;;;;;;;24.88;16.50;;;;;;;9.68;58.93;100999.91;4905929;29;20386;-91
2022/03/24 02:42:26;;;;;;;22.80;15.60;;;;;;;9.67;58.93;101009.72;4905241;29;20027;-91
2022/03/24 02:44:53;;;;;;;22.77;15.85;;;;;;;9.70;59.50;101006.00;4904183;29;20032;-92
2022/03/24 02:47:19;;;;;;;22.63;16.17;;;;;;;9.70;59.00;101004.16;4905240;29;20058;-91
2022/03/24 02:49:46;;;;;;;25.23;15.45;;;;;;;9.69;58.88;101001.59;4905950;29;20055;-92
2022/03/24 02:52:12;;;;;;;23.52;16.77;;;;;;;9.67;58.98;101004.38;4904775;29;20075;-91
2022/03/24 02:54:38;;;;;;;21.88;16.08;;;;;;;9.67;59.12;101003.53;4905799;29;20118;-92
2022/03/24 02:57:04;;;;;;;24.73;16.73;;;;;;;9.65;58.67;101000.09;4905208;29;20159;-91
2022/03/24 02:59:29;;;;;;;21.55;16.05;;;;;;;9.60;58.83;101000.44;4905299;29;20027;-91
2022/03/24 03:02:06;;;;;;;23.98;16.50;;;;;;;9.51;58.85;100998.41;4905164;29;20481;-91
2022/03/24 03:04:32;;;;;;;22.70;15.30;;;;;;;9.52;59.00;101008.13;4904186;29;20034;-92
2022/03/24 03:06:58;;;;;;;20.98;15.65;;;;;;;9.55;59.18;100996.38;4903834;29;20054;-92
2022/03/24 03:09:24;;;;;;;23.23;15.85;;;;;;;9.52;58.93;101004.59;4904567;29;20113;-91
2022/03/24 03:11:51;;;;;;;23.33;16.70;;;;;;;9.52;59.22;101005.44;4920869;29;20445;-91
2022/03/24 03:14:17;;;;;;;27.13;16.83;;;;;;;9.58;58.93;101002.34;4904840;29;20046;-91
2022/03/24 03:16:44;;;;;;;26.88;16.35;;;;;;;9.59;58.61;101014.75;4904173;29;20048;-91
2022/03/24 03:19:10;;;;;;;23.60;16.15;;;;;;;9.51;58.70;101001.06;4904146;29;20122;-93
2022/03/24 03:21:36;;;;;;;23.40;16.52;;;;;;;9.49;58.64;101007.47;4903563;29;20110;-91
2022/03/24 03:24:03;;;;;;;22.30;15.85;;;;;;;9.40;58.83;101006.25;4905241;29;20389;-91
2022/03/24 03:26:28;;;;;;;22.92;16.33;;;;;;;9.40;58.92;101006.25;4904434;29;20107;-92
2022/03/24 03:28:54;;;;;;;24.85;17.10;;;;;;;9.43;58.74;101006.06;4904769;29;20367;-91
2022/03/24 03:31:20;;;;;;;23.00;15.95;;;;;;;9.46;58.54;101011.22;4905242;29;20023;-91
2022/03/24 03:33:45;;;;;;;24.55;16.90;;;;;;;9.37;58.52;101010.00;4904740;29;20038;-92
2022/03/24 03:36:11;;;;;;;25.08;16.70;;;;;;;9.36;58.85;101012.78;4903980;29;20479;-92
2022/03/24 03:38:37;;;;;;;24.73;17.02;;;;;;;9.35;58.78;101006.56;4905474;29;20027;-92
2022/03/24 03:41:02;;;;;;;26.58;17.35;;;;;;;9.33;58.90;101015.66;4905600;29;20119;-90
2022/03/24 03:43:28;;;;;;;24.45;16.60;;;;;;;9.29;58.83;101011.47;4904448;29;20023;-91
2022/03/24 03:45:54;;;;;;;24.23;16.70;;;;;;;9.31;58.73;101017.56;4905625;29;20024;-91
2022/03/24 03:48:19;;;;;;;23.05;16.58;;;;;;;9.25;58.64;101013.50;4904896;29;20034;-91
2022/03/24 03:50:44;;;;;;;23.55;16.73;;;;;;;9.22;59.28;101018.19;4904638;29;20027;-91
2022/03/24 03:53:10;;;;;;;25.35;15.82;;;;;;;9.19;58.78;101011.25;4904382;29;20024;-91
2022/03/24 03:55:37;;;;;;;22.55;16.50;;;;;;;9.19;59.36;101011.25;4904388;29;20075;-91
2022/03/24 03:58:06;;;;;;;24.05;16.83;;;;;;;9.15;59.23;101009.75;4904307;29;20370;-91
2022/03/24 04:03:16;;;;;;;25.08;16.45;;;;;;;9.18;59.21;101017.53;4923070;29;20453;-91
2022/03/24 04:05:43;;;;;;;22.60;15.55;;;;;;;9.08;59.49;101019.13;4904106;29;20055;-91
2022/03/24 04:08:09;;;;;;;23.25;16.65;;;;;;;9.13;59.54;101022.34;4903797;29;20075;-91
2022/03/24 04:10:34;;;;;;;23.17;16.20;;;;;;;9.11;59.25;101009.09;4903831;29;20348;-93
2022/03/24 04:13:00;;;;;;;27.85;17.60;;;;;;;9.14;59.42;101006.22;4904224;29;20036;-91
2022/03/24 04:15:26;;;;;;;25.83;16.80;;;;;;;9.10;59.30;101017.19;4903349;29;20036;-92
2022/03/24 04:17:51;;;;;;;23.02;15.85;;;;;;;8.84;59.80;101010.91;4903612;29;20028;-91
2022/03/24 04:20:20;;;;;;;25.40;16.13;;;;;;;8.97;59.98;101018.94;4903533;29;20048;-91
2022/03/24 04:22:48;;;;;;;22.65;15.88;;;;;;;8.95;60.36;101016.38;4904126;29;20032;-91
2022/03/24 04:25:14;;;;;;;23.13;15.35;;;;;;;8.90;60.13;101017.66;4904106;29;20027;-91
2022/03/24 04:27:39;;;;;;;22.92;15.25;;;;;;;8.90;60.08;101015.84;4903984;29;20158;-93
2022/03/24 04:30:05;;;;;;;22.02;15.90;;;;;;;8.95;59.43;101021.72;4902521;29;20126;-91
2022/03/24 04:32:30;;;;;;;24.05;16.25;;;;;;;8.92;60.00;101016.59;4902727;29;20039;-91
2022/03/24 04:34:56;;;;;;;26.00;17.08;;;;;;;8.91;59.80;101006.88;4903234;29;20028;-92
2022/03/24 04:37:21;;;;;;;27.30;16.88;;;;;;;9.04;59.65;101012.28;4903738;29;20107;-91
2022/03/24 04:39:47;;;;;;;23.83;16.73;;;;;;;8.95;59.48;101016.38;4903833;29;20039;-91
2022/03/24 04:42:12;;;;;;;25.55;17.55;;;;;;;8.84;59.82;101016.25;4903125;29;20020;-92
2022/03/24 04:44:38;;;;;;;24.67;17.15;;;;;;;8.90;59.65;101013.16;4902401;29;20034;-91
2022/03/24 04:47:03;;;;;;;24.25;15.90;;;;;;;8.93;59.76;101012.97;4902121;29;20046;-91
2022/03/24 04:49:29;;;;;;;25.08;16.60;;;;;;;8.94;59.88;101021.81;4903553;29;20035;-92
2022/03/24 04:51:55;;;;;;;23.25;16.02;;;;;;;8.86;59.84;101021.47;4904487;29;20020;-92
2022/03/24 04:54:20;;;;;;;24.02;17.00;;;;;;;8.90;60.32;101017.66;4902809;29;20026;-92
2022/03/24 04:56:46;;;;;;;25.70;17.58;;;;;;;8.87;59.76;101021.38;4903606;29;20477;-91
2022/03/24 04:59:12;;;;;;;26.80;18.30;;;;;;;8.84;59.90;101024.25;4902966;29;20485;-91
2022/03/24 05:01:37;;;;;;;27.08;18.33;;;;;;;8.78;60.30;101022.84;4901832;29;20028;-91
2022/03/24 05:04:04;;;;;;;24.10;16.75;;;;;;;8.81;60.07;101022.63;4903420;29;20183;-92
2022/03/24 05:06:31;;;;;;;25.38;17.55;;;;;;;8.88;59.65;101030.22;4902953;29;20028;-91
2022/03/24 05:08:57;;;;;;;26.90;18.08;;;;;;;8.68;59.63;101028.88;4903356;29;20024;-91
2022/03/24 05:11:22;;;;;;;25.75;18.25;;;;;;;8.67;60.24;101030.69;4902957;29;20540;-92
2022/03/24 05:13:47;;;;;;;29.65;17.95;;;;;;;8.70;60.27;101027.81;4903017;29;20122;-91
2022/03/24 05:16:13;;;;;;;25.30;17.35;;;;;;;8.73;59.96;101032.94;4903355;29;20024;-92
2022/03/24 05:18:39;;;;;;;24.20;16.95;;;;;;;8.52;60.21;101027.19;4902950;29;20405;-91
2022/03/24 05:21:04;;;;;;;25.77;17.45;;;;;;;8.55;60.54;101035.94;4903237;29;20505;-91
2022/03/24 05:23:30;;;;;;;25.88;16.98;;;;;;;8.63;60.20;101031.84;4903009;29;20126;-91
2022/03/24 05:25:56;;;;;;;25.25;17.08;;;;;;;8.65;60.24;101032.59;4903229;29;20031;-91
2022/03/24 05:28:22;;;;;;;25.33;17.33;;;;;;;8.57;60.41;101029.56;4902973;29;20485;-91
2022/03/24 05:30:47;;;;;;;25.60;17.52;;;;;;;8.55;60.20;101031.47;4902995;29;20393;-91
2022/03/24 05:33:13;;;;;;;25.65;16.88;;;;;;;8.57;60.14;101034.91;4902837;29;20115;-92
2022/03/24 05:35:39;;;;;;;25.55;17.05;;;;;;;8.64;60.06;101027.34;4901836;29;20110;-91
2022/03/24 05:38:05;;;;;;;29.10;17.77;;;;;;;8.76;60.01;101022.06;4902692;29;20473;-91
2022/03/24 05:40:31;;;;;;;27.42;17.75;;;;;;;8.56;59.65;101032.34;4902611;29;20023;-91
2022/03/24 05:42:57;;;;;;;33.22;26.60;;;;;;;8.41;60.48;101031.47;4901610;29;20020;-91
2022/03/24 05:45:22;;;;;;;26.75;18.77;;;;;;;8.44;60.34;101028.59;4902402;29;20053;-91
2022/03/24 05:47:48;;;;;;;25.52;17.17;;;;;;;8.50;60.52;101025.56;4901808;29;20382;-92
2022/03/24 05:50:17;;;;;;;24.42;17.73;;;;;;;8.45;60.46;101033.00;4902384;29;20027;-93
2022/03/24 05:52:43;;;;;;;24.63;17.20;;;;;;;8.55;60.52;101034.13;4901970;29;20019;-90
2022/03/24 05:55:09;;;;;;;25.95;16.88;;;;;;;8.28;61.09;101034.03;4901383;29;20031;-92
2022/03/24 05:57:34;;;;;;;25.90;16.65;;;;;;;8.40;61.51;101038.63;4900683;29;20027;-92
2022/03/24 06:00:01;;;;;;;26.48;17.20;;;;;;;8.30;61.68;101029.47;4901891;29;20030;-92
2022/03/24 06:02:26;;;;;;;26.15;18.67;;;;;;;8.42;61.23;101030.53;4902804;29;20044;-92
2022/03/24 06:04:53;;;;;;;27.45;18.48;;;;;;;8.44;60.58;101028.59;4901630;29;20031;-91
2022/03/24 06:07:18;;;;;;;29.15;18.42;;;;;;;8.53;61.19;101030.72;4901741;29;20020;-91
2022/03/24 06:09:49;;;;;;;28.38;18.08;;;;;;;8.51;61.14;101024.59;4902388;29;20460;-92
2022/03/24 06:12:15;;;;;;;30.10;18.05;;;;;;;8.47;61.50;101031.09;4903008;29;20022;-92
2022/03/24 06:14:40;;;;;;;27.27;18.45;;;;;;;8.35;61.78;101037.19;4902379;29;20043;-91
2022/03/24 06:17:07;;;;;;;24.40;17.40;;;;;;;8.43;61.90;101029.56;4902365;29;20031;-91
2022/03/24 06:19:35;;;;;;;25.55;17.05;;;;;;;8.37;61.89;101035.28;4901914;29;20516;-92
2022/03/24 06:22:02;;;;;;;29.30;17.80;;;;;;;8.20;62.30;101034.50;4901215;29;20481;-91
2022/03/24 06:24:29;;;;;;;23.55;16.55;;;;;;;8.29;62.12;101035.75;4902136;29;20331;-91
2022/03/24 06:26:55;;;;;;;25.45;16.75;;;;;;;8.33;62.84;101034.63;4902966;29;20056;-91
2022/03/24 06:29:22;;;;;;;28.35;16.77;;;;;;;8.36;62.63;101031.75;4902797;29;20102;-91
2022/03/24 06:31:48;;;;;;;24.63;16.45;;;;;;;8.43;62.42;101030.41;4903228;29;20027;-91
2022/03/24 06:34:14;;;;;;;25.85;17.58;;;;;;;8.52;62.55;101032.53;4903101;29;20027;-91
2022/03/24 06:36:39;;;;;;;24.95;17.42;;;;;;;8.48;62.83;101036.31;4899370;29;20131;-91
2022/03/24 06:39:10;;;;;;;28.08;17.90;;;;;;;8.42;63.08;101038.50;4899389;29;20036;-91
2022/03/24 06:41:36;;;;;;;27.33;17.45;;;;;;;8.18;63.49;101038.22;4899645;29;20040;-91
2022/03/24 06:44:04;;;;;;;25.02;17.08;;;;;;;8.33;63.57;101042.63;4899967;29;20027;-91
2022/03/24 06:46:32;;;;;;;29.40;17.92;;;;;;;8.44;63.54;101040.13;4900235;29;20028;-91
2022/03/24 06:48:57;;;;;;;31.05;17.88;;;;;;;8.50;62.96;101042.41;4900267;29;20039;-91
2022/03/24 06:51:26;;;;;;;29.35;18.33;;;;;;;8.46;63.98;101045.34;4900120;29;20024;-91
2022/03/24 06:53:51;;;;;;;31.92;17.42;;;;;;;8.55;63.61;101042.13;4904156;29;20038;-91
2022/03/24 06:56:17;;;;;;;27.05;17.83;;;;;;;8.57;63.94;101042.91;4918530;29;20031;-92
2022/03/24 06:58:43;;;;;;;27.25;18.10;;;;;;;8.52;64.09;101035.19;4918678;29;20090;-91
2022/03/24 07:01:10;;;;;;;26.27;18.00;;;;;;;8.62;64.30;101040.78;4918428;29;20056;-91
2022/03/24 07:03:36;;;;;;;27.58;18.73;;;;;;;8.66;63.78;101033.44;4918991;29;20030;-91
2022/03/24 07:06:01;;;;;;;32.10;19.27;;;;;;;8.65;64.59;101039.72;4896834;29;20024;-91
2022/03/24 07:08:27;;;;;;;31.58;19.45;;;;;;;8.56;64.64;101035.00;4911520;29;20043;-90
2022/03/24 07:10:53;;;;;;;30.67;19.20;;;;;;;8.69;64.73;101033.25;4899575;29;20028;-91
2022/03/24 07:13:18;;;;;;;27.33;19.67;;;;;;;8.73;64.98;101035.63;4899229;29;20028;-91
2022/03/24 07:15:44;;;;;;;29.35;19.52;;;;;;;8.78;64.89;101037.97;4913359;29;20039;-92
2022/03/24 07:18:10;;;;;;;27.15;19.55;;;;;;;8.79;64.87;101040.53;4921479;29;20050;-91
2022/03/24 07:20:36;;;;;;;30.17;19.65;;;;;;;8.79;65.92;101043.22;4922127;29;20031;-91
2022/03/24 07:23:03;;;;;;;27.92;19.73;;;;;;;8.83;65.58;101044.72;4923628;29;20111;-91
2022/03/24 07:25:30;;;;;;;31.08;20.85;;;;;;;8.87;65.91;101053.38;4921481;29;20023;-92
2022/03/24 07:27:56;;;;;;;34.15;22.45;;;;;;;8.92;66.05;101047.75;4921535;29;20375;-92
2022/03/24 07:30:22;;;;;;;34.42;22.42;;;;;;;8.93;66.11;101052.97;4921388;29;20037;-92
2022/03/24 07:32:47;;;;;;;33.75;22.35;;;;;;;8.99;66.14;101049.06;4921749;29;20030;-91
2022/03/24 07:35:14;;;;;;;30.67;22.00;;;;;;;9.04;65.74;101047.81;4921360;29;20027;-92
2022/03/24 07:37:40;;;;;;;31.55;21.27;;;;;;;9.05;65.79;101056.69;4921151;29;20059;-92
2022/03/24 07:40:07;;;;;;;33.83;21.25;;;;;;;9.08;65.88;101053.81;4916906;29;20035;-91
2022/03/24 07:42:33;;;;;;;30.77;21.73;;;;;;;9.17;65.97;101055.00;4913686;29;20058;-91
2022/03/24 07:44:58;;;;;;;33.38;21.27;;;;;;;9.21;66.13;101044.03;4921192;29;20577;-92
2022/03/24 07:47:24;;;;;;;31.33;20.75;;;;;;;9.27;66.31;101053.44;4919562;29;20028;-91
2022/03/24 07:49:50;;;;;;;34.40;22.15;;;;;;;9.31;66.69;101054.94;4920725;29;20034;-91
2022/03/24 07:52:15;;;;;;;34.40;22.25;;;;;;;9.32;66.27;101049.50;4920988;29;20020;-91
2022/03/24 07:54:56;;;;;;;31.85;22.02;;;;;;;9.34;66.72;101049.38;4922059;29;20481;-91
2022/03/24 07:57:22;;;;;;;31.42;21.27;;;;;;;9.39;67.12;101058.78;4923068;29;20028;-91
2022/03/24 07:59:47;;;;;;;29.40;21.02;;;;;;;9.44;67.39;101055.81;4901514;29;20028;-91
2022/03/24 08:02:13;;;;;;;29.45;21.35;;;;;;;9.51;67.42;101054.47;4911002;29;20468;-91
2022/03/24 08:04:38;;;;;;;29.02;20.20;;;;;;;9.54;67.28;101054.25;4916957;29;20119;-91
2022/03/24 08:07:04;;;;;;;34.33;21.88;;;;;;;9.59;67.35;101056.63;4902063;29;20063;-91
2022/03/24 08:09:32;;;;;;;33.78;22.13;;;;;;;9.59;67.41;101049.47;4901839;29;20035;-91
2022/03/24 08:11:58;;;;;;;36.33;23.58;;;;;;;9.66;66.13;101061.44;4901608;29;20032;-91
2022/03/24 08:14:24;;;;;;;33.20;20.42;;;;;;;9.72;66.01;101060.16;4910739;29;20035;-91
2022/03/24 08:16:49;;;;;;;31.90;21.33;;;;;;;9.76;65.78;101056.31;4919832;29;20122;-92
2022/03/24 08:19:14;;;;;;;36.05;22.20;;;;;;;9.82;65.99;101057.69;4918580;29;20039;-91
2022/03/24 08:21:41;;;;;;;31.50;21.45;;;;;;;9.85;66.20;101065.50;4920264;29;20119;-91
2022/03/24 08:24:06;;;;;;;35.70;22.60;;;;;;;9.86;66.10;101069.88;4908450;29;20063;-92
2022/03/24 08:26:33;;;;;;;33.60;22.58;;;;;;;9.87;65.83;101064.44;4909381;29;20066;-91
2022/03/24 08:28:59;;;;;;;34.50;21.98;;;;;;;9.92;65.63;101062.28;4900858;29;20473;-91
2022/03/24 08:31:24;;;;;;;34.13;21.83;;;;;;;9.92;66.08;101066.78;4917825;29;20114;-91
2022/03/24 08:33:49;;;;;;;33.30;21.50;;;;;;;9.97;65.33;101068.22;4919306;29;20031;-91
2022/03/24 08:36:15;;;;;;;36.78;21.50;;;;;;;10.00;64.75;101065.31;4918467;29;20106;-92
2022/03/24 08:38:40;;;;;;;34.53;21.20;;;;;;;10.03;63.91;101062.44;4914499;29;20066;-91
2022/03/24 08:41:06;;;;;;;43.00;23.00;;;;;;;10.07;63.23;101065.75;4909202;29;20094;-91
2022/03/24 08:43:32;;;;;;;36.88;22.33;;;;;;;10.06;63.15;101066.72;4919897;29;20417;-91
2022/03/24 08:45:57;;;;;;;41.85;23.58;;;;;;;10.09;62.89;101075.38;4916593;29;20107;-91
2022/03/24 08:48:22;;;;;;;37.15;22.35;;;;;;;10.11;61.99;101077.94;4916400;29;20051;-91
2022/03/24 08:50:48;;;;;;;36.97;22.65;;;;;;;10.13;62.31;101078.69;4899879;29;20032;-91
2022/03/24 08:53:13;;;;;;;40.53;23.73;;;;;;;10.18;61.10;101073.00;4899884;29;20104;-91
2022/03/24 08:55:39;;;;;;;38.38;23.60;;;;;;;10.21;59.93;101078.16;4904118;29;20031;-91
2022/03/24 08:58:04;;;;;;;36.42;22.75;;;;;;;10.23;58.65;101074.44;4902572;29;20492;-91
2022/03/24 09:00:30;;;;;;;34.20;21.75;;;;;;;10.19;59.12;101075.56;4898908;29;20355;-91
2022/03/24 09:02:56;;;;;;;41.00;23.15;;;;;;;10.22;59.20;101069.19;4913157;29;20500;-91
2022/03/24 09:05:21;;;;;;;36.78;22.95;;;;;;;10.20;59.49;101079.09;4900607;29;20028;-91
2022/03/24 09:07:47;;;;;;;35.65;22.05;;;;;;;10.24;60.20;101078.81;4913035;29;20316;-91
2022/03/24 09:10:15;;;;;;;37.17;22.38;;;;;;;10.31;60.40;101082.75;4934005;29;20059;-91
2022/03/24 09:12:44;;;;;;;37.53;23.70;;;;;;;10.34;59.80;101079.00;4915060;29;20028;-91
2022/03/24 09:15:10;;;;;;;42.35;25.20;;;;;;;10.42;57.62;101083.84;4902907;29;20067;-91
2022/03/24 09:17:37;;;;;;;42.25;25.10;;;;;;;10.42;56.98;101079.34;4898537;29;20032;-92
2022/03/24 09:20:09;;;;;;;42.35;24.70;;;;;;;10.49;56.26;101090.47;4901074;29;20115;-91
2022/03/24 09:22:38;;;;;;;39.03;24.23;;;;;;;10.47;56.39;101090.56;4902767;29;20608;-91
2022/03/24 09:25:04;;;;;;;;;;;;;;;10.51;56.33;101089.38;4919439;29;20054;-91
2022/03/24 09:27:29;;;;;;;40.03;23.73;;;;;;;10.55;56.37;101087.34;4915261;29;19911;-91
2022/03/24 09:29:55;;;;;;;36.67;22.70;;;;;;;10.53;56.70;101094.63;4900222;29;20184;-91
2022/03/24 09:32:21;;;;;;;39.92;24.20;;;;;;;10.53;57.53;101089.28;4903022;29;20059;-91
2022/03/24 09:34:47;;;;;;;37.13;23.15;;;;;;;10.54;57.51;101088.31;4919050;29;20031;-91
2022/03/24 09:37:17;;;;;;;40.33;24.58;;;;;;;10.60;58.04;101085.19;4918704;29;20047;-91
2022/03/24 09:39:42;;;;;;;40.67;23.63;;;;;;;10.64;58.20;101092.88;4918645;29;20028;-91
2022/03/24 09:42:08;;;;;;;38.70;24.13;;;;;;;10.72;56.97;101090.50;4918455;29;20098;-91
2022/03/24 09:44:34;;;;;;;44.83;24.77;;;;;;;10.69;57.33;101089.88;4918765;29;20063;-91
2022/03/24 09:46:59;;;;;;;43.05;24.92;;;;;;;10.78;56.72;101088.34;4918323;29;20114;-91
2022/03/24 09:49:25;;;;;;;40.63;24.48;;;;;;;10.74;56.65;101087.72;4917888;29;20028;-91
2022/03/24 09:51:50;;;;;;;38.33;24.15;;;;;;;10.72;56.82;101092.31;4918686;29;20111;-91
2022/03/24 09:54:16;;;;;;;40.92;24.95;;;;;;;10.83;55.92;101089.72;4908928;29;20504;-91
2022/03/24 09:56:41;;;;;;;36.90;24.55;;;;;;;10.90;54.89;101088.34;4915249;29;20474;-91
2022/03/24 09:59:09;;;;;;;38.80;23.65;;;;;;;10.84;55.37;101083.41;4918927;29;20031;-92
2022/03/24 10:01:35;;;;;;;41.70;24.35;;;;;;;10.83;55.46;101088.88;4918514;29;20023;-92
2022/03/24 10:04:08;;;;;;;42.58;26.27;;;;;;;10.85;55.32;101089.59;4918800;29;20401;-91
2022/03/24 10:06:36;;;;;;;38.80;24.00;;;;;;;10.91;53.28;101086.53;4918636;29;20030;-91
2022/03/24 10:09:01;;;;;;;36.65;23.60;;;;;;;10.99;50.94;101089.47;4918206;29;20023;-92
2022/03/24 10:11:27;;;;;;;39.75;24.35;;;;;;;11.16;50.81;101093.59;4918325;29;20083;-91
2022/03/24 10:13:55;;;;;;;35.75;23.52;;;;;;;11.13;49.92;101086.63;4918383;29;20031;-91
2022/03/24 10:16:32;;;;;;;33.58;21.88;;;;;;;11.19;49.29;101088.00;4917849;29;20032;-91
2022/03/24 10:19:02;;;;;;;36.22;23.20;;;;;;;11.23;48.62;101084.13;4933684;29;20143;-92
2022/03/24 10:21:29;;;;;;;39.67;23.67;;;;;;;11.12;49.35;101082.25;4933652;29;20028;-91
2022/03/24 10:23:57;;;;;;;34.38;22.75;;;;;;;11.14;49.16;101076.78;4916461;29;20030;-91
2022/03/24 10:26:24;;;;;;;37.70;23.90;;;;;;;11.22;50.09;101072.56;4913294;29;20046;-92
2022/03/24 10:28:59;;;;;;;40.70;24.27;;;;;;;11.31;49.13;101081.72;4918378;29;20371;-91
2022/03/24 10:31:35;;;;;;;37.08;23.50;;;;;;;11.24;49.76;101075.13;4924962;29;20098;-91
2022/03/24 10:34:00;;;;;;;37.03;22.70;;;;;;;11.28;49.24;101081.97;4898910;29;20067;-91
2022/03/24 10:36:26;;;;;;;34.83;22.52;;;;;;;11.19;49.45;101072.78;4904541;29;20087;-91
2022/03/24 10:39:04;;;;;;;33.88;22.17;;;;;;;11.33;48.47;101064.56;4899707;29;20040;-86
2022/03/24 10:41:35;;;;;;;34.45;22.83;;;;;;;11.29;49.03;101067.59;4890013;29;20028;-86
2022/03/24 10:44:09;;;;;;;35.45;23.25;;;;;;;11.37;48.92;101072.41;4921265;29;20044;-87
2022/03/24 10:46:36;;;;;;;39.53;23.23;;;;;;;11.37;48.52;101073.25;4892952;29;20088;-86
2022/03/24 10:49:23;;;;;;;35.03;22.27;;;;;;;11.34;48.48;101077.00;4893790;29;20028;-86
2022/03/24 10:51:50;;;;;;;33.58;22.73;;;;;;;11.27;48.70;101074.91;4906358;29;20557;-87
2022/03/24 10:54:15;;;;;;;35.83;22.38;;;;;;;11.23;49.21;101076.09;4893413;29;20394;-86
2022/03/24 10:57:02;;;;;;;37.55;21.40;;;;;;;11.35;48.26;101073.38;4909003;29;20028;-87
2022/03/24 10:59:32;;;;;;;34.30;20.17;;;;;;;11.42;47.22;101076.44;4908853;29;20036;-87
2022/03/24 11:01:58;;;;;;;36.53;23.00;;;;;;;11.51;47.35;101070.38;4892814;29;20055;-86
2022/03/24 11:04:23;;;;;;;31.50;21.15;;;;;;;11.50;46.77;101073.19;4893963;29;20067;-87
2022/03/24 11:06:49;;;;;;;32.33;22.02;;;;;;;11.53;46.48;101072.94;4909002;29;20060;-86
2022/03/24 11:09:34;;;;;;;32.85;21.58;;;;;;;11.52;46.90;101066.75;4892484;29;20056;-87
2022/03/24 11:12:22;;;;;;;30.83;20.10;;;;;;;11.54;45.59;101071.97;4906527;29;20032;-86
2022/03/24 11:14:50;;;;;;;29.58;19.30;;;;;;;11.47;46.08;101073.41;4891558;29;20028;-86